Heat Index SAI AWOS Graphical Display Untitled Document
Bertrand Chaffee Hospital Heliport (2NK6) Springville, New York, USA
120
18:23
30/03/2017
09
N/A
VRB
30.07
N/A
1420
34(F), 1(C)
32(F), 0(C)
27 F
95%
SCT013
1
-SN
0.02"
N/A
18:23 zulu Wind 130 at 08 Knots, Altimeter 30.07
METAR K2NK6 301823Z AUTO 12009KT V0RB 1SM -SN SCT013 01/00 A3007 A02 P0002
METAR:
FAA Disclaimer--Advisory Use ONLY, not for flight info--
INFO:
Wind Direction:
Wind Speed:
Wind Gust:
Wind Variable:
Altimeter:
Dens Alt:
Elev:
Temp:
Dwpt:
Wind Chill
Rel Humidity:
Ceiling:
Visibility:
Prsnt Wea:
PCPN:
Remarks:
How to read the WebPage